sensor_id;sensor_type;location;lat;lon;timestamp;temperature;humidity
27162;DHT22;54464;50.558;9.704;2023-09-19T00:01:23;16.10;99.90
27162;DHT22;54464;50.558;9.704;2023-09-19T00:03:49;16.10;99.90
27162;DHT22;54464;50.558;9.704;2023-09-19T00:06:14;16.10;99.90
27162;DHT22;54464;50.558;9.704;2023-09-19T00:08:41;16.10;99.90
27162;DHT22;54464;50.558;9.704;2023-09-19T00:11:09;16.10;99.90
27162;DHT22;54464;50.558;9.704;2023-09-19T00:13:36;16.10;99.90
27162;DHT22;54464;50.558;9.704;2023-09-19T00:16:08;16.10;99.90
27162;DHT22;54464;50.558;9.704;2023-09-19T00:18:36;16.10;99.90
27162;DHT22;54464;50.558;9.704;2023-09-19T00:21:03;16.10;99.90
27162;DHT22;54464;50.558;9.704;2023-09-19T00:23:30;16.20;99.90
27162;DHT22;54464;50.558;9.704;2023-09-19T00:26:00;16.10;99.90
27162;DHT22;54464;50.558;9.704;2023-09-19T00:28:26;16.10;99.90
27162;DHT22;54464;50.558;9.704;2023-09-19T00:30:52;16.20;99.90
27162;DHT22;54464;50.558;9.704;2023-09-19T00:33:20;16.20;99.90
27162;DHT22;54464;50.558;9.704;2023-09-19T00:35:49;16.20;99.90
27162;DHT22;54464;50.558;9.704;2023-09-19T00:38:15;16.20;99.90
27162;DHT22;54464;50.558;9.704;2023-09-19T00:40:46;16.20;99.90
27162;DHT22;54464;50.558;9.704;2023-09-19T00:43:11;16.10;99.90
27162;DHT22;54464;50.558;9.704;2023-09-19T00:45:38;16.10;99.90
27162;DHT22;54464;50.558;9.704;2023-09-19T00:48:08;16.10;99.90
27162;DHT22;54464;50.558;9.704;2023-09-19T00:50:35;16.20;99.90
27162;DHT22;54464;50.558;9.704;2023-09-19T00:53:02;16.20;99.90
27162;DHT22;54464;50.558;9.704;2023-09-19T00:55:34;16.20;99.90
27162;DHT22;54464;50.558;9.704;2023-09-19T00:58:00;16.10;99.90
27162;DHT22;54464;50.558;9.704;2023-09-19T01:00:26;16.20;99.90
27162;DHT22;54464;50.558;9.704;2023-09-19T01:02:52;16.10;99.90
27162;DHT22;54464;50.558;9.704;2023-09-19T01:05:18;16.10;99.90
27162;DHT22;54464;50.558;9.704;2023-09-19T01:07:44;16.10;99.90
27162;DHT22;54464;50.558;9.704;2023-09-19T01:10:14;16.00;99.90
27162;DHT22;54464;50.558;9.704;2023-09-19T01:18:07;16.00;99.90
27162;DHT22;54464;50.558;9.704;2023-09-19T01:23:39;16.10;99.90
27162;DHT22;54464;50.558;9.704;2023-09-19T01:29:16;16.10;99.90
27162;DHT22;54464;50.558;9.704;2023-09-19T01:31:45;16.10;99.90
27162;DHT22;54464;50.558;9.704;2023-09-19T01:34:12;16.00;99.90
27162;DHT22;54464;50.558;9.704;2023-09-19T01:36:38;15.80;99.90
27162;DHT22;54464;50.558;9.704;2023-09-19T01:39:09;15.70;99.90
27162;DHT22;54464;50.558;9.704;2023-09-19T01:47:41;15.50;99.90
27162;DHT22;54464;50.558;9.704;2023-09-19T01:50:15;15.50;99.90
27162;DHT22;54464;50.558;9.704;2023-09-19T01:52:48;15.60;99.90
27162;DHT22;54464;50.558;9.704;2023-09-19T01:55:15;15.60;99.90
27162;DHT22;54464;50.558;9.704;2023-09-19T01:57:49;15.60;99.90
27162;DHT22;54464;50.558;9.704;2023-09-19T02:00:18;15.60;99.90
27162;DHT22;54464;50.558;9.704;2023-09-19T02:02:47;15.60;99.90
27162;DHT22;54464;50.558;9.704;2023-09-19T02:05:13;15.70;99.90
27162;DHT22;54464;50.558;9.704;2023-09-19T02:07:47;15.70;99.90
27162;DHT22;54464;50.558;9.704;2023-09-19T02:10:13;15.70;99.90
27162;DHT22;54464;50.558;9.704;2023-09-19T02:12:39;15.70;99.90
27162;DHT22;54464;50.558;9.704;2023-09-19T02:15:05;15.70;99.90
27162;DHT22;54464;50.558;9.704;2023-09-19T02:17:32;15.60;99.90
27162;DHT22;54464;50.558;9.704;2023-09-19T02:19:57;15.50;99.90
27162;DHT22;54464;50.558;9.704;2023-09-19T02:22:24;15.50;99.90
27162;DHT22;54464;50.558;9.704;2023-09-19T02:24:50;15.50;99.90
27162;DHT22;54464;50.558;9.704;2023-09-19T02:27:16;15.50;99.90
27162;DHT22;54464;50.558;9.704;2023-09-19T02:29:43;15.50;99.90
27162;DHT22;54464;50.558;9.704;2023-09-19T02:32:08;15.60;99.90
27162;DHT22;54464;50.558;9.704;2023-09-19T02:34:37;15.60;99.90
27162;DHT22;54464;50.558;9.704;2023-09-19T02:37:07;15.60;99.90
27162;DHT22;54464;50.558;9.704;2023-09-19T02:39:34;15.60;99.90
27162;DHT22;54464;50.558;9.704;2023-09-19T02:42:00;15.60;99.90
27162;DHT22;54464;50.558;9.704;2023-09-19T02:44:25;15.50;99.90
27162;DHT22;54464;50.558;9.704;2023-09-19T02:46:51;15.50;99.90
27162;DHT22;54464;50.558;9.704;2023-09-19T02:49:16;15.50;99.90
27162;DHT22;54464;50.558;9.704;2023-09-19T02:51:44;15.50;99.90
27162;DHT22;54464;50.558;9.704;2023-09-19T02:54:09;15.40;99.90
27162;DHT22;54464;50.558;9.704;2023-09-19T02:56:36;15.40;99.90
27162;DHT22;54464;50.558;9.704;2023-09-19T02:59:02;15.40;99.90
27162;DHT22;54464;50.558;9.704;2023-09-19T03:01:28;15.50;99.90
27162;DHT22;54464;50.558;9.704;2023-09-19T03:03:54;15.50;99.90
27162;DHT22;54464;50.558;9.704;2023-09-19T03:06:20;15.50;99.90
27162;DHT22;54464;50.558;9.704;2023-09-19T03:08:47;15.50;99.90
27162;DHT22;54464;50.558;9.704;2023-09-19T03:11:14;15.40;99.90
27162;DHT22;54464;50.558;9.704;2023-09-19T03:13:41;15.40;99.90
27162;DHT22;54464;50.558;9.704;2023-09-19T03:16:08;15.40;99.90
27162;DHT22;54464;50.558;9.704;2023-09-19T03:18:34;15.40;99.90
27162;DHT22;54464;50.558;9.704;2023-09-19T03:21:00;15.40;99.90
27162;DHT22;54464;50.558;9.704;2023-09-19T03:23:27;15.30;99.90
27162;DHT22;54464;50.558;9.704;2023-09-19T03:25:53;15.30;99.90
27162;DHT22;54464;50.558;9.704;2023-09-19T03:28:19;15.30;99.90
27162;DHT22;54464;50.558;9.704;2023-09-19T03:31:00;15.30;99.90
27162;DHT22;54464;50.558;9.704;2023-09-19T03:33:26;15.10;99.90
27162;DHT22;54464;50.558;9.704;2023-09-19T03:35:54;15.00;99.90
27162;DHT22;54464;50.558;9.704;2023-09-19T03:38:20;15.10;99.90
27162;DHT22;54464;50.558;9.704;2023-09-19T03:40:47;15.00;99.90
27162;DHT22;54464;50.558;9.704;2023-09-19T03:43:14;15.00;99.90
27162;DHT22;54464;50.558;9.704;2023-09-19T03:45:39;14.90;99.90
27162;DHT22;54464;50.558;9.704;2023-09-19T03:48:09;15.00;99.90
27162;DHT22;54464;50.558;9.704;2023-09-19T03:50:35;14.90;99.90
27162;DHT22;54464;50.558;9.704;2023-09-19T03:53:00;14.80;99.90
27162;DHT22;54464;50.558;9.704;2023-09-19T03:55:26;14.80;99.90
27162;DHT22;54464;50.558;9.704;2023-09-19T03:57:52;14.90;99.90
27162;DHT22;54464;50.558;9.704;2023-09-19T04:00:18;14.80;99.90
27162;DHT22;54464;50.558;9.704;2023-09-19T04:02:47;14.80;99.90
27162;DHT22;54464;50.558;9.704;2023-09-19T04:05:12;14.80;99.90
27162;DHT22;54464;50.558;9.704;2023-09-19T04:07:38;14.80;99.90
27162;DHT22;54464;50.558;9.704;2023-09-19T04:10:03;14.80;99.90
27162;DHT22;54464;50.558;9.704;2023-09-19T04:12:29;14.70;99.90
27162;DHT22;54464;50.558;9.704;2023-09-19T04:14:55;14.80;99.90
27162;DHT22;54464;50.558;9.704;2023-09-19T04:17:20;14.70;99.90
27162;DHT22;54464;50.558;9.704;2023-09-19T04:19:46;14.80;99.90
27162;DHT22;54464;50.558;9.704;2023-09-19T04:22:11;14.70;99.90
27162;DHT22;54464;50.558;9.704;2023-09-19T04:24:38;14.70;99.90
27162;DHT22;54464;50.558;9.704;2023-09-19T04:27:04;14.70;99.90
27162;DHT22;54464;50.558;9.704;2023-09-19T04:29:30;14.70;99.90
27162;DHT22;54464;50.558;9.704;2023-09-19T04:31:56;14.60;99.90
27162;DHT22;54464;50.558;9.704;2023-09-19T04:34:22;14.60;99.90
27162;DHT22;54464;50.558;9.704;2023-09-19T04:36:49;14.60;99.90
27162;DHT22;54464;50.558;9.704;2023-09-19T04:39:15;14.60;99.90
27162;DHT22;54464;50.558;9.704;2023-09-19T04:41:40;14.60;99.90
27162;DHT22;54464;50.558;9.704;2023-09-19T04:44:07;14.60;99.90
27162;DHT22;54464;50.558;9.704;2023-09-19T04:46:35;14.60;99.90
27162;DHT22;54464;50.558;9.704;2023-09-19T04:49:01;14.60;99.90
27162;DHT22;54464;50.558;9.704;2023-09-19T04:51:27;14.60;99.90
27162;DHT22;54464;50.558;9.704;2023-09-19T04:53:58;14.60;99.90
27162;DHT22;54464;50.558;9.704;2023-09-19T04:56:23;14.60;99.90
27162;DHT22;54464;50.558;9.704;2023-09-19T04:58:51;14.50;99.90
27162;DHT22;54464;50.558;9.704;2023-09-19T05:01:17;14.60;99.90
27162;DHT22;54464;50.558;9.704;2023-09-19T05:03:42;14.70;99.90
27162;DHT22;54464;50.558;9.704;2023-09-19T05:06:10;14.80;99.90
27162;DHT22;54464;50.558;9.704;2023-09-19T05:08:35;14.70;99.90
27162;DHT22;54464;50.558;9.704;2023-09-19T05:11:04;14.70;99.90
27162;DHT22;54464;50.558;9.704;2023-09-19T05:13:29;14.80;99.90
27162;DHT22;54464;50.558;9.704;2023-09-19T05:16:00;14.80;99.90
27162;DHT22;54464;50.558;9.704;2023-09-19T05:18:27;14.80;99.90
27162;DHT22;54464;50.558;9.704;2023-09-19T05:20:53;14.80;99.90
27162;DHT22;54464;50.558;9.704;2023-09-19T05:23:20;14.90;99.90
27162;DHT22;54464;50.558;9.704;2023-09-19T05:25:48;14.90;99.90
27162;DHT22;54464;50.558;9.704;2023-09-19T05:28:14;14.90;99.90
27162;DHT22;54464;50.558;9.704;2023-09-19T05:30:40;14.90;99.90
27162;DHT22;54464;50.558;9.704;2023-09-19T05:33:08;15.00;99.90
27162;DHT22;54464;50.558;9.704;2023-09-19T05:35:34;14.90;99.90
27162;DHT22;54464;50.558;9.704;2023-09-19T05:38:00;14.90;99.90
27162;DHT22;54464;50.558;9.704;2023-09-19T05:40:26;14.90;99.90
27162;DHT22;54464;50.558;9.704;2023-09-19T05:42:51;15.00;99.90
27162;DHT22;54464;50.558;9.704;2023-09-19T05:45:17;15.00;99.90
27162;DHT22;54464;50.558;9.704;2023-09-19T05:47:48;15.00;99.90
27162;DHT22;54464;50.558;9.704;2023-09-19T05:50:14;15.00;99.90
27162;DHT22;54464;50.558;9.704;2023-09-19T05:52:42;15.00;99.90
27162;DHT22;54464;50.558;9.704;2023-09-19T05:55:08;15.00;99.90
27162;DHT22;54464;50.558;9.704;2023-09-19T05:57:35;14.90;99.90
27162;DHT22;54464;50.558;9.704;2023-09-19T06:00:00;15.00;99.90
27162;DHT22;54464;50.558;9.704;2023-09-19T06:02:26;15.00;99.90
27162;DHT22;54464;50.558;9.704;2023-09-19T06:04:55;14.90;99.90
27162;DHT22;54464;50.558;9.704;2023-09-19T06:07:22;15.00;99.90
27162;DHT22;54464;50.558;9.704;2023-09-19T06:09:51;15.00;99.90
27162;DHT22;54464;50.558;9.704;2023-09-19T06:12:17;15.00;99.90
27162;DHT22;54464;50.558;9.704;2023-09-19T06:14:43;15.00;99.90
27162;DHT22;54464;50.558;9.704;2023-09-19T06:17:08;15.00;99.90
27162;DHT22;54464;50.558;9.704;2023-09-19T06:19:34;15.00;99.90
27162;DHT22;54464;50.558;9.704;2023-09-19T06:21:59;15.00;99.90
27162;DHT22;54464;50.558;9.704;2023-09-19T06:24:25;15.00;99.90
27162;DHT22;54464;50.558;9.704;2023-09-19T06:26:51;15.00;99.90
27162;DHT22;54464;50.558;9.704;2023-09-19T06:29:18;15.00;99.90
27162;DHT22;54464;50.558;9.704;2023-09-19T06:31:46;15.10;99.90
27162;DHT22;54464;50.558;9.704;2023-09-19T06:34:12;15.20;99.90
27162;DHT22;54464;50.558;9.704;2023-09-19T06:36:39;15.20;99.90
27162;DHT22;54464;50.558;9.704;2023-09-19T06:39:06;15.10;99.90
27162;DHT22;54464;50.558;9.704;2023-09-19T06:41:32;15.10;99.90
27162;DHT22;54464;50.558;9.704;2023-09-19T06:43:57;15.20;99.90
27162;DHT22;54464;50.558;9.704;2023-09-19T06:46:23;15.10;99.90
27162;DHT22;54464;50.558;9.704;2023-09-19T06:48:50;15.20;99.90
27162;DHT22;54464;50.558;9.704;2023-09-19T06:51:18;15.10;99.90
27162;DHT22;54464;50.558;9.704;2023-09-19T06:53:43;15.10;99.90
27162;DHT22;54464;50.558;9.704;2023-09-19T06:56:09;15.10;99.90
27162;DHT22;54464;50.558;9.704;2023-09-19T06:58:35;15.10;99.90
27162;DHT22;54464;50.558;9.704;2023-09-19T07:01:02;15.00;99.90
27162;DHT22;54464;50.558;9.704;2023-09-19T07:03:28;15.10;99.90
27162;DHT22;54464;50.558;9.704;2023-09-19T07:05:54;15.20;99.90
27162;DHT22;54464;50.558;9.704;2023-09-19T07:08:21;15.30;99.90
27162;DHT22;54464;50.558;9.704;2023-09-19T07:10:47;15.30;99.90
27162;DHT22;54464;50.558;9.704;2023-09-19T07:13:18;15.30;99.90
27162;DHT22;54464;50.558;9.704;2023-09-19T07:15:44;15.30;99.90
27162;DHT22;54464;50.558;9.704;2023-09-19T07:18:13;15.30;99.90
27162;DHT22;54464;50.558;9.704;2023-09-19T07:20:40;15.40;99.90
27162;DHT22;54464;50.558;9.704;2023-09-19T07:23:18;15.50;99.90
27162;DHT22;54464;50.558;9.704;2023-09-19T07:25:45;15.50;99.90
27162;DHT22;54464;50.558;9.704;2023-09-19T07:28:11;15.30;99.90
27162;DHT22;54464;50.558;9.704;2023-09-19T07:30:37;15.40;99.90
27162;DHT22;54464;50.558;9.704;2023-09-19T07:33:04;15.50;99.90
27162;DHT22;54464;50.558;9.704;2023-09-19T07:35:31;15.50;99.90
27162;DHT22;54464;50.558;9.704;2023-09-19T07:37:56;15.50;99.90
27162;DHT22;54464;50.558;9.704;2023-09-19T07:40:23;15.50;99.90
27162;DHT22;54464;50.558;9.704;2023-09-19T07:42:52;15.60;99.90
27162;DHT22;54464;50.558;9.704;2023-09-19T07:45:17;15.80;99.90
27162;DHT22;54464;50.558;9.704;2023-09-19T07:47:48;15.80;99.90
27162;DHT22;54464;50.558;9.704;2023-09-19T07:50:14;15.80;99.90
27162;DHT22;54464;50.558;9.704;2023-09-19T07:52:41;15.70;99.90
27162;DHT22;54464;50.558;9.704;2023-09-19T07:55:08;15.80;99.90
27162;DHT22;54464;50.558;9.704;2023-09-19T07:57:37;15.70;99.90
27162;DHT22;54464;50.558;9.704;2023-09-19T08:00:03;15.70;99.90
27162;DHT22;54464;50.558;9.704;2023-09-19T08:02:36;15.90;99.90
27162;DHT22;54464;50.558;9.704;2023-09-19T08:05:04;15.80;99.90
27162;DHT22;54464;50.558;9.704;2023-09-19T08:07:50;15.90;99.90
27162;DHT22;54464;50.558;9.704;2023-09-19T08:10:15;16.10;99.90
27162;DHT22;54464;50.558;9.704;2023-09-19T08:12:45;15.90;99.90
27162;DHT22;54464;50.558;9.704;2023-09-19T08:15:14;15.90;99.90
27162;DHT22;54464;50.558;9.704;2023-09-19T08:17:40;15.90;99.90
27162;DHT22;54464;50.558;9.704;2023-09-19T08:20:07;16.00;99.90
27162;DHT22;54464;50.558;9.704;2023-09-19T08:22:32;15.80;99.90
27162;DHT22;54464;50.558;9.704;2023-09-19T08:24:58;15.80;99.90
27162;DHT22;54464;50.558;9.704;2023-09-19T08:27:24;15.60;99.90
27162;DHT22;54464;50.558;9.704;2023-09-19T08:29:53;15.80;99.90
27162;DHT22;54464;50.558;9.704;2023-09-19T08:32:18;16.00;99.90
27162;DHT22;54464;50.558;9.704;2023-09-19T08:34:49;16.00;99.90
27162;DHT22;54464;50.558;9.704;2023-09-19T08:37:15;16.00;99.90
27162;DHT22;54464;50.558;9.704;2023-09-19T08:39:44;16.10;99.90
27162;DHT22;54464;50.558;9.704;2023-09-19T08:42:10;16.30;99.90
27162;DHT22;54464;50.558;9.704;2023-09-19T08:44:37;16.50;99.90
27162;DHT22;54464;50.558;9.704;2023-09-19T08:47:15;16.50;99.90
27162;DHT22;54464;50.558;9.704;2023-09-19T08:52:27;16.50;99.90
27162;DHT22;54464;50.558;9.704;2023-09-19T08:54:58;15.90;99.90
27162;DHT22;54464;50.558;9.704;2023-09-19T08:57:29;16.40;99.90
27162;DHT22;54464;50.558;9.704;2023-09-19T08:59:58;16.40;99.90
27162;DHT22;54464;50.558;9.704;2023-09-19T09:02:25;16.40;99.90
27162;DHT22;54464;50.558;9.704;2023-09-19T09:04:53;16.40;99.90
27162;DHT22;54464;50.558;9.704;2023-09-19T09:07:20;16.30;99.90
27162;DHT22;54464;50.558;9.704;2023-09-19T09:09:47;16.30;99.90
27162;DHT22;54464;50.558;9.704;2023-09-19T09:12:14;16.30;99.90
27162;DHT22;54464;50.558;9.704;2023-09-19T09:14:45;16.70;99.90
27162;DHT22;54464;50.558;9.704;2023-09-19T09:17:11;16.80;99.90
27162;DHT22;54464;50.558;9.704;2023-09-19T09:19:37;16.90;99.90
27162;DHT22;54464;50.558;9.704;2023-09-19T09:22:07;17.00;99.90
27162;DHT22;54464;50.558;9.704;2023-09-19T09:24:33;17.00;99.90
27162;DHT22;54464;50.558;9.704;2023-09-19T09:26:59;17.00;99.90
27162;DHT22;54464;50.558;9.704;2023-09-19T09:29:44;17.20;99.90
27162;DHT22;54464;50.558;9.704;2023-09-19T09:32:29;17.00;99.90
27162;DHT22;54464;50.558;9.704;2023-09-19T09:35:01;17.10;99.90
27162;DHT22;54464;50.558;9.704;2023-09-19T09:37:28;17.00;99.90
27162;DHT22;54464;50.558;9.704;2023-09-19T09:40:00;16.70;99.90
27162;DHT22;54464;50.558;9.704;2023-09-19T09:42:46;16.90;99.90
27162;DHT22;54464;50.558;9.704;2023-09-19T09:45:22;17.00;99.90
27162;DHT22;54464;50.558;9.704;2023-09-19T09:48:03;16.70;99.90
27162;DHT22;54464;50.558;9.704;2023-09-19T09:50:33;16.80;99.90
27162;DHT22;54464;50.558;9.704;2023-09-19T09:53:19;16.60;99.90
27162;DHT22;54464;50.558;9.704;2023-09-19T09:56:02;17.00;99.90
27162;DHT22;54464;50.558;9.704;2023-09-19T09:58:35;17.50;99.90
27162;DHT22;54464;50.558;9.704;2023-09-19T10:01:01;17.00;99.90
27162;DHT22;54464;50.558;9.704;2023-09-19T10:03:40;17.10;99.90
27162;DHT22;54464;50.558;9.704;2023-09-19T10:06:13;16.80;99.90
27162;DHT22;54464;50.558;9.704;2023-09-19T10:09:07;17.30;99.90
27162;DHT22;54464;50.558;9.704;2023-09-19T10:12:05;17.70;99.80
27162;DHT22;54464;50.558;9.704;2023-09-19T10:14:35;18.00;98.00
27162;DHT22;54464;50.558;9.704;2023-09-19T10:17:05;17.20;98.80
27162;DHT22;54464;50.558;9.704;2023-09-19T10:19:37;17.40;98.20
27162;DHT22;54464;50.558;9.704;2023-09-19T10:22:05;17.60;98.30
27162;DHT22;54464;50.558;9.704;2023-09-19T10:24:35;17.60;98.30
27162;DHT22;54464;50.558;9.704;2023-09-19T10:27:04;17.50;98.40
27162;DHT22;54464;50.558;9.704;2023-09-19T10:29:34;18.00;98.40
27162;DHT22;54464;50.558;9.704;2023-09-19T10:32:03;17.50;98.50
27162;DHT22;54464;50.558;9.704;2023-09-19T10:34:33;17.60;99.00
27162;DHT22;54464;50.558;9.704;2023-09-19T10:37:02;17.90;98.70
27162;DHT22;54464;50.558;9.704;2023-09-19T10:39:32;18.10;98.50
27162;DHT22;54464;50.558;9.704;2023-09-19T10:42:01;18.10;97.70
27162;DHT22;54464;50.558;9.704;2023-09-19T10:44:32;18.30;97.60
27162;DHT22;54464;50.558;9.704;2023-09-19T10:46:58;18.10;97.80
27162;DHT22;54464;50.558;9.704;2023-09-19T10:49:25;17.90;98.40
27162;DHT22;54464;50.558;9.704;2023-09-19T10:51:56;18.20;97.90
27162;DHT22;54464;50.558;9.704;2023-09-19T10:54:27;18.10;97.70
27162;DHT22;54464;50.558;9.704;2023-09-19T10:56:55;18.20;97.50
27162;DHT22;54464;50.558;9.704;2023-09-19T10:59:24;17.60;98.10
27162;DHT22;54464;50.558;9.704;2023-09-19T11:01:53;17.80;98.80
27162;DHT22;54464;50.558;9.704;2023-09-19T11:04:32;18.00;98.00
27162;DHT22;54464;50.558;9.704;2023-09-19T11:09:46;18.10;98.10
27162;DHT22;54464;50.558;9.704;2023-09-19T11:14:58;18.00;98.70
27162;DHT22;54464;50.558;9.704;2023-09-19T11:30:44;18.30;97.30
27162;DHT22;54464;50.558;9.704;2023-09-19T11:33:20;19.00;96.20
27162;DHT22;54464;50.558;9.704;2023-09-19T11:49:26;19.20;94.90
27162;DHT22;54464;50.558;9.704;2023-09-19T11:51:55;19.60;93.50
27162;DHT22;54464;50.558;9.704;2023-09-19T11:54:21;19.90;93.30
27162;DHT22;54464;50.558;9.704;2023-09-19T11:56:54;19.30;93.50
27162;DHT22;54464;50.558;9.704;2023-09-19T11:59:40;18.80;94.00
27162;DHT22;54464;50.558;9.704;2023-09-19T12:02:07;18.90;94.50
27162;DHT22;54464;50.558;9.704;2023-09-19T12:04:43;19.00;93.90
27162;DHT22;54464;50.558;9.704;2023-09-19T12:07:14;18.90;93.80
27162;DHT22;54464;50.558;9.704;2023-09-19T12:10:02;18.60;95.30
27162;DHT22;54464;50.558;9.704;2023-09-19T12:12:28;18.20;94.70
27162;DHT22;54464;50.558;9.704;2023-09-19T12:14:56;18.50;94.50
27162;DHT22;54464;50.558;9.704;2023-09-19T12:17:41;18.80;93.60
27162;DHT22;54464;50.558;9.704;2023-09-19T12:20:08;19.10;92.70
27162;DHT22;54464;50.558;9.704;2023-09-19T12:22:45;19.60;92.80
27162;DHT22;54464;50.558;9.704;2023-09-19T12:25:12;19.40;93.10
27162;DHT22;54464;50.558;9.704;2023-09-19T12:27:49;18.60;94.60
27162;DHT22;54464;50.558;9.704;2023-09-19T12:30:19;18.10;95.90
27162;DHT22;54464;50.558;9.704;2023-09-19T12:32:46;18.00;96.10
27162;DHT22;54464;50.558;9.704;2023-09-19T12:35:28;18.10;96.40
27162;DHT22;54464;50.558;9.704;2023-09-19T12:37:55;17.90;95.70
27162;DHT22;54464;50.558;9.704;2023-09-19T12:40:22;18.60;95.00
27162;DHT22;54464;50.558;9.704;2023-09-19T12:42:53;19.70;92.20
27162;DHT22;54464;50.558;9.704;2023-09-19T12:45:30;19.10;92.90
27162;DHT22;54464;50.558;9.704;2023-09-19T12:48:19;19.00;92.60
27162;DHT22;54464;50.558;9.704;2023-09-19T12:51:12;18.40;93.40
27162;DHT22;54464;50.558;9.704;2023-09-19T12:53:44;19.10;92.30
27162;DHT22;54464;50.558;9.704;2023-09-19T12:56:18;20.10;90.90
27162;DHT22;54464;50.558;9.704;2023-09-19T12:58:57;20.40;90.00
27162;DHT22;54464;50.558;9.704;2023-09-19T13:01:26;20.60;88.00
27162;DHT22;54464;50.558;9.704;2023-09-19T13:04:30;20.70;89.30
27162;DHT22;54464;50.558;9.704;2023-09-19T13:06:58;21.10;85.60
27162;DHT22;54464;50.558;9.704;2023-09-19T13:09:27;20.90;87.40
27162;DHT22;54464;50.558;9.704;2023-09-19T13:12:04;21.90;84.20
27162;DHT22;54464;50.558;9.704;2023-09-19T13:14:32;22.20;84.00
27162;DHT22;54464;50.558;9.704;2023-09-19T13:22:37;20.10;90.10
27162;DHT22;54464;50.558;9.704;2023-09-19T13:25:10;21.20;86.00
27162;DHT22;54464;50.558;9.704;2023-09-19T13:27:41;22.50;82.70
27162;DHT22;54464;50.558;9.704;2023-09-19T13:30:07;22.00;83.70
27162;DHT22;54464;50.558;9.704;2023-09-19T13:32:33;21.50;83.30
27162;DHT22;54464;50.558;9.704;2023-09-19T13:35:02;20.90;85.90
27162;DHT22;54464;50.558;9.704;2023-09-19T13:37:30;20.50;87.10
27162;DHT22;54464;50.558;9.704;2023-09-19T13:39:56;20.40;89.90
27162;DHT22;54464;50.558;9.704;2023-09-19T13:42:24;19.40;91.20
27162;DHT22;54464;50.558;9.704;2023-09-19T13:44:50;20.40;90.80
27162;DHT22;54464;50.558;9.704;2023-09-19T13:47:17;20.30;89.10
27162;DHT22;54464;50.558;9.704;2023-09-19T13:49:50;20.60;88.10
27162;DHT22;54464;50.558;9.704;2023-09-19T13:52:18;21.10;88.10
27162;DHT22;54464;50.558;9.704;2023-09-19T13:54:44;20.70;87.70
27162;DHT22;54464;50.558;9.704;2023-09-19T13:57:09;20.40;90.40
27162;DHT22;54464;50.558;9.704;2023-09-19T13:59:35;21.00;89.30
27162;DHT22;54464;50.558;9.704;2023-09-19T14:02:01;20.80;87.30
27162;DHT22;54464;50.558;9.704;2023-09-19T14:04:32;21.20;88.00
27162;DHT22;54464;50.558;9.704;2023-09-19T14:07:00;21.40;86.80
27162;DHT22;54464;50.558;9.704;2023-09-19T14:09:26;21.40;86.50
27162;DHT22;54464;50.558;9.704;2023-09-19T14:11:52;21.50;87.70
27162;DHT22;54464;50.558;9.704;2023-09-19T14:14:20;21.40;86.50
27162;DHT22;54464;50.558;9.704;2023-09-19T14:16:47;21.70;86.30
27162;DHT22;54464;50.558;9.704;2023-09-19T14:19:12;22.00;85.30
27162;DHT22;54464;50.558;9.704;2023-09-19T14:21:39;22.40;84.50
27162;DHT22;54464;50.558;9.704;2023-09-19T14:24:05;20.90;86.80
27162;DHT22;54464;50.558;9.704;2023-09-19T14:26:37;20.10;89.70
27162;DHT22;54464;50.558;9.704;2023-09-19T14:29:03;20.30;90.60
27162;DHT22;54464;50.558;9.704;2023-09-19T14:31:29;19.40;90.50
27162;DHT22;54464;50.558;9.704;2023-09-19T14:33:55;19.40;90.80
27162;DHT22;54464;50.558;9.704;2023-09-19T14:36:25;19.70;90.50
27162;DHT22;54464;50.558;9.704;2023-09-19T14:38:53;20.40;90.10
27162;DHT22;54464;50.558;9.704;2023-09-19T14:41:23;20.50;89.60
27162;DHT22;54464;50.558;9.704;2023-09-19T14:43:51;20.00;89.70
27162;DHT22;54464;50.558;9.704;2023-09-19T14:46:17;20.40;89.00
27162;DHT22;54464;50.558;9.704;2023-09-19T14:48:44;20.90;87.70
27162;DHT22;54464;50.558;9.704;2023-09-19T14:51:12;21.00;86.50
27162;DHT22;54464;50.558;9.704;2023-09-19T14:53:39;21.20;85.30
27162;DHT22;54464;50.558;9.704;2023-09-19T14:56:07;21.90;85.80
27162;DHT22;54464;50.558;9.704;2023-09-19T14:58:33;22.40;83.70
27162;DHT22;54464;50.558;9.704;2023-09-19T15:01:09;22.00;83.10
27162;DHT22;54464;50.558;9.704;2023-09-19T15:03:40;21.70;85.60
27162;DHT22;54464;50.558;9.704;2023-09-19T15:06:11;22.90;83.30
27162;DHT22;54464;50.558;9.704;2023-09-19T15:08:40;22.30;81.10
27162;DHT22;54464;50.558;9.704;2023-09-19T15:11:11;22.20;82.60
27162;DHT22;54464;50.558;9.704;2023-09-19T15:13:37;22.00;84.70
27162;DHT22;54464;50.558;9.704;2023-09-19T15:16:05;21.80;83.30
27162;DHT22;54464;50.558;9.704;2023-09-19T15:18:35;21.80;84.50
27162;DHT22;54464;50.558;9.704;2023-09-19T15:21:03;21.80;83.90
27162;DHT22;54464;50.558;9.704;2023-09-19T15:23:31;22.10;84.70
27162;DHT22;54464;50.558;9.704;2023-09-19T15:26:02;22.10;83.10
27162;DHT22;54464;50.558;9.704;2023-09-19T15:28:28;21.80;83.70
27162;DHT22;54464;50.558;9.704;2023-09-19T15:31:03;22.20;83.60
27162;DHT22;54464;50.558;9.704;2023-09-19T15:33:29;23.30;80.00
27162;DHT22;54464;50.558;9.704;2023-09-19T15:36:12;22.20;81.80
27162;DHT22;54464;50.558;9.704;2023-09-19T15:41:30;20.90;85.90
27162;DHT22;54464;50.558;9.704;2023-09-19T15:43:57;21.20;86.10
27162;DHT22;54464;50.558;9.704;2023-09-19T15:46:27;21.00;86.50
27162;DHT22;54464;50.558;9.704;2023-09-19T15:48:54;21.80;84.70
27162;DHT22;54464;50.558;9.704;2023-09-19T15:51:20;22.70;82.60
27162;DHT22;54464;50.558;9.704;2023-09-19T15:53:48;22.20;83.50
27162;DHT22;54464;50.558;9.704;2023-09-19T15:56:14;22.30;82.80
27162;DHT22;54464;50.558;9.704;2023-09-19T15:59:00;21.80;84.30
27162;DHT22;54464;50.558;9.704;2023-09-19T16:01:26;21.80;84.10
27162;DHT22;54464;50.558;9.704;2023-09-19T16:03:53;21.80;84.20
27162;DHT22;54464;50.558;9.704;2023-09-19T16:06:23;21.60;85.70
27162;DHT22;54464;50.558;9.704;2023-09-19T16:08:50;22.50;85.00
27162;DHT22;54464;50.558;9.704;2023-09-19T16:11:17;23.50;81.70
27162;DHT22;54464;50.558;9.704;2023-09-19T16:13:43;24.60;78.40
27162;DHT22;54464;50.558;9.704;2023-09-19T16:16:15;23.80;80.40
27162;DHT22;54464;50.558;9.704;2023-09-19T16:18:51;23.40;80.00
27162;DHT22;54464;50.558;9.704;2023-09-19T16:21:18;23.20;82.00
27162;DHT22;54464;50.558;9.704;2023-09-19T16:23:48;22.90;82.30
27162;DHT22;54464;50.558;9.704;2023-09-19T16:26:15;22.80;82.30
27162;DHT22;54464;50.558;9.704;2023-09-19T16:28:43;24.20;80.40
27162;DHT22;54464;50.558;9.704;2023-09-19T16:31:09;23.20;81.90
27162;DHT22;54464;50.558;9.704;2023-09-19T16:33:43;22.50;83.30
27162;DHT22;54464;50.558;9.704;2023-09-19T16:36:13;22.80;82.90
27162;DHT22;54464;50.558;9.704;2023-09-19T16:38:41;22.20;84.30
27162;DHT22;54464;50.558;9.704;2023-09-19T16:41:07;22.50;84.00